Time;durP1;ratioP1;P1;durP2;ratioP2;P2;SDS_P1;SDS_P2;PMS_P1;PMS_P2;Temp;Humidity;BMP_temperature;BMP_pressure;BME280_temperature;BME280_humidity;BME280_pressure;Samples;Min_cycle;Max_cycle;Signal;HPM_P1;HPM_P2
2023/10/11 00:01:11;;;;;;;7.78;5.35;;;15.20;91.20;;;;;;4987773;28;20081;-92
2023/10/11 00:03:45;;;;;;;5.78;4.15;;;15.20;91.50;;;;;;4981110;28;20080;-91
2023/10/11 00:06:13;;;;;;;5.47;4.88;;;15.20;91.40;;;;;;4971907;28;20031;-91
2023/10/11 00:08:40;;;;;;;4.95;4.45;;;15.20;91.50;;;;;;4980528;28;20058;-90
2023/10/11 00:11:07;;;;;;;5.47;4.07;;;15.20;91.40;;;;;;4980056;28;20035;-91
2023/10/11 00:13:35;;;;;;;5.85;5.38;;;15.30;91.40;;;;;;4974381;28;20015;-91
2023/10/11 00:16:07;;;;;;;6.47;4.57;;;15.20;90.90;;;;;;4981533;28;20054;-92
2023/10/11 00:18:38;;;;;;;6.20;5.25;;;15.30;90.90;;;;;;4972319;28;20553;-91
2023/10/11 00:21:11;;;;;;;5.50;4.22;;;15.40;90.70;;;;;;4979571;28;20031;-91
2023/10/11 00:23:41;;;;;;;6.03;4.70;;;15.40;90.80;;;;;;4981358;28;20082;-91
2023/10/11 00:26:07;;;;;;;5.90;4.78;;;15.30;91.20;;;;;;4980840;28;20126;-90
2023/10/11 00:28:33;;;;;;;7.97;4.78;;;15.30;91.00;;;;;;4979901;28;20066;-92
2023/10/11 00:31:01;;;;;;;7.13;5.20;;;15.30;91.50;;;;;;4980584;28;20027;-91
2023/10/11 00:33:28;;;;;;;5.45;4.72;;;15.30;91.40;;;;;;4980393;28;20023;-91
2023/10/11 00:35:55;;;;;;;;;;;15.20;91.80;;;;;;4980540;28;20210;-91
2023/10/11 00:38:27;;;;;;;6.43;4.85;;;15.20;92.30;;;;;;4980236;28;19910;-89
2023/10/11 00:41:06;;;;;;;6.00;4.82;;;15.10;92.00;;;;;;4981128;28;20031;-91
2023/10/11 00:43:39;;;;;;;4.88;4.38;;;15.20;92.00;;;;;;4972688;28;20027;-91
2023/10/11 00:46:08;;;;;;;4.28;3.53;;;15.10;92.30;;;;;;4981316;28;20135;-91
2023/10/11 00:48:51;;;;;;;6.80;5.93;;;15.10;91.90;;;;;;4979830;28;20022;-91
2023/10/11 00:51:19;;;;;;;6.40;4.68;;;15.10;92.00;;;;;;4972128;28;20022;-90
2023/10/11 00:53:46;;;;;;;6.47;5.80;;;15.10;92.10;;;;;;4980696;28;20023;-92
2023/10/11 00:56:14;;;;;;;6.20;4.28;;;15.00;93.10;;;;;;4979509;28;20026;-93
2023/10/11 00:58:40;;;;;;;5.82;4.32;;;15.00;93.70;;;;;;4977651;28;20128;-90
2023/10/11 01:01:08;;;;;;;5.45;4.95;;;14.90;93.70;;;;;;4978008;28;20029;-90
2023/10/11 01:03:35;;;;;;;7.13;6.53;;;14.90;93.70;;;;;;4967402;28;20027;-90
2023/10/11 01:06:02;;;;;;;5.88;4.60;;;14.90;94.40;;;;;;4966253;28;20031;-93
2023/10/11 01:08:38;;;;;;;5.28;4.55;;;14.70;95.60;;;;;;4979809;28;20077;-91
2023/10/11 01:11:11;;;;;;;7.88;5.25;;;14.70;95.50;;;;;;4981824;28;20510;-92
2023/10/11 01:13:40;;;;;;;7.20;5.32;;;14.60;96.10;;;;;;4980303;28;20019;-91
2023/10/11 01:16:10;;;;;;;5.60;5.07;;;14.50;96.20;;;;;;4968254;28;20030;-91
2023/10/11 01:18:40;;;;;;;6.82;6.25;;;14.50;96.30;;;;;;4974666;28;20312;-90
2023/10/11 01:21:10;;;;;;;7.05;5.97;;;14.50;96.50;;;;;;4979731;28;20023;-90
2023/10/11 01:23:36;;;;;;;6.20;5.47;;;14.40;97.10;;;;;;4973149;28;20033;-91
2023/10/11 01:26:08;;;;;;;6.93;6.32;;;14.30;96.60;;;;;;4980200;28;20501;-92
2023/10/11 01:28:40;;;;;;;6.47;4.78;;;14.30;96.20;;;;;;4979425;28;20026;-91
2023/10/11 01:31:10;;;;;;;6.88;6.10;;;14.30;96.80;;;;;;4972646;28;20164;-92
2023/10/11 01:33:38;;;;;;;7.75;6.18;;;14.20;97.40;;;;;;4979075;28;20069;-90
2023/10/11 01:36:06;;;;;;;7.35;5.30;;;14.10;97.70;;;;;;4978884;28;20032;-90
2023/10/11 01:38:33;;;;;;;6.70;5.70;;;14.10;97.80;;;;;;4978485;28;20421;-90
2023/10/11 01:40:59;;;;;;;5.18;3.15;;;14.10;98.00;;;;;;4978546;28;20367;-92
2023/10/11 01:43:25;;;;;;;6.07;4.63;;;14.10;97.40;;;;;;4979349;28;20027;-92
2023/10/11 01:45:51;;;;;;;5.85;5.15;;;14.10;96.90;;;;;;4979292;28;20033;-91
2023/10/11 01:48:17;;;;;;;9.38;5.20;;;14.20;96.70;;;;;;4977250;28;20050;-92
2023/10/11 01:50:43;;;;;;;6.18;5.65;;;14.20;96.70;;;;;;4977661;28;20018;-91
2023/10/11 01:53:09;;;;;;;7.00;5.32;;;14.10;96.80;;;;;;4982949;28;20041;-89
2023/10/11 01:55:39;;;;;;;7.15;5.38;;;14.10;96.90;;;;;;4986468;28;20042;-89
2023/10/11 01:58:06;;;;;;;7.50;5.35;;;14.10;97.10;;;;;;4980474;28;20026;-91
2023/10/11 02:00:33;;;;;;;5.85;4.75;;;14.00;97.20;;;;;;4972499;28;20023;-89
2023/10/11 02:02:59;;;;;;;6.38;5.68;;;14.10;98.00;;;;;;4982568;28;20023;-92
2023/10/11 02:05:25;;;;;;;7.43;6.72;;;13.90;99.00;;;;;;4978869;28;20018;-90
2023/10/11 02:07:51;;;;;;;5.15;4.65;;;13.90;99.00;;;;;;4979421;28;20031;-90
2023/10/11 02:10:26;;;;;;;6.80;6.15;;;13.90;99.30;;;;;;4978550;28;20281;-89
2023/10/11 02:12:55;;;;;;;8.02;4.85;;;13.80;99.40;;;;;;4976993;28;20033;-89
2023/10/11 02:15:27;;;;;;;5.97;5.43;;;13.80;99.90;;;;;;4977806;28;20023;-91
2023/10/11 02:17:54;;;;;;;6.43;5.80;;;13.80;99.90;;;;;;4961055;28;20027;-89
2023/10/11 02:20:22;;;;;;;8.43;5.38;;;13.80;99.90;;;;;;4980826;28;20027;-92
2023/10/11 02:22:56;;;;;;;5.78;5.13;;;13.80;99.90;;;;;;4962713;28;20023;-91
2023/10/11 02:25:24;;;;;;;9.52;6.03;;;13.70;99.90;;;;;;4983010;28;20019;-91
2023/10/11 02:27:51;;;;;;;5.55;4.15;;;13.80;99.90;;;;;;4969716;28;20168;-91
2023/10/11 02:30:22;;;;;;;9.18;6.80;;;13.90;99.90;;;;;;4982427;28;20031;-92
2023/10/11 02:32:52;;;;;;;8.88;5.20;;;13.80;99.90;;;;;;4982627;28;20082;-92
2023/10/11 02:35:19;;;;;;;6.18;5.40;;;13.80;99.90;;;;;;4981845;28;20023;-91
2023/10/11 02:37:48;;;;;;;7.75;5.18;;;13.80;99.80;;;;;;4980495;28;20030;-90
2023/10/11 02:40:23;;;;;;;7.13;6.43;;;13.80;99.60;;;;;;4980859;28;20030;-90
2023/10/11 02:42:55;;;;;;;8.40;5.45;;;13.90;99.90;;;;;;4981917;28;20039;-91
2023/10/11 02:45:24;;;;;;;6.82;6.05;;;13.80;99.90;;;;;;4980037;28;20038;-91
2023/10/11 02:47:59;;;;;;;7.57;3.97;;;13.80;99.90;;;;;;4979711;28;20412;-91
2023/10/11 02:50:36;;;;;;;7.00;5.47;;;13.80;99.90;;;;;;4978460;28;20022;-92
2023/10/11 02:53:05;;;;;;;7.85;7.05;;;13.70;99.90;;;;;;4980013;28;20027;-90
2023/10/11 02:55:31;;;;;;;8.07;6.10;;;13.80;99.90;;;;;;4980500;28;20022;-91
2023/10/11 02:58:08;;;;;;;6.63;5.22;;;13.80;99.90;;;;;;4978770;28;20085;-91
2023/10/11 03:00:36;;;;;;;7.50;4.15;;;13.80;99.90;;;;;;4973286;28;20405;-90
2023/10/11 03:03:07;;;;;;;7.85;5.07;;;13.80;99.90;;;;;;4982766;28;20460;-91
2023/10/11 03:05:37;;;;;;;6.63;5.93;;;13.80;99.90;;;;;;4979768;28;20034;-90
2023/10/11 03:08:21;;;;;;;6.40;5.30;;;13.80;99.90;;;;;;4980707;28;20019;-91
2023/10/11 03:10:54;;;;;;;7.22;6.10;;;13.70;99.90;;;;;;4981537;28;20022;-91
2023/10/11 03:13:24;;;;;;;7.47;6.43;;;13.70;99.90;;;;;;4981477;28;20563;-89
2023/10/11 03:15:54;;;;;;;7.65;5.38;;;13.60;99.90;;;;;;4977745;28;20072;-91
2023/10/11 03:18:25;;;;;;;8.60;7.80;;;13.60;99.90;;;;;;4981310;28;20085;-90
2023/10/11 03:21:16;;;;;;;9.27;5.88;;;13.60;99.90;;;;;;4984323;28;20019;-90
2023/10/11 03:23:46;;;;;;;6.97;5.50;;;13.70;99.90;;;;;;4983174;28;20696;-92
2023/10/11 03:26:17;;;;;;;8.32;6.13;;;13.70;99.90;;;;;;4978815;28;20022;-90
2023/10/11 03:28:44;;;;;;;8.23;6.53;;;13.70;99.90;;;;;;4979573;28;20042;-91
2023/10/11 03:31:12;;;;;;;10.77;5.72;;;13.80;99.90;;;;;;4979918;28;20023;-92
2023/10/11 03:33:40;;;;;;;;;;;13.80;99.80;;;;;;4981351;28;20019;-92
2023/10/11 03:36:17;;;;;;;7.28;5.45;;;13.80;99.70;;;;;;4980596;28;19906;-89
2023/10/11 03:38:53;;;;;;;7.32;6.53;;;13.80;99.60;;;;;;4973142;28;20114;-91
2023/10/11 03:41:29;;;;;;;8.52;6.72;;;13.80;99.50;;;;;;4980771;28;20532;-90
2023/10/11 03:44:00;;;;;;;7.65;5.60;;;13.70;99.70;;;;;;4979545;28;20026;-91
2023/10/11 03:46:28;;;;;;;9.05;5.65;;;13.70;99.60;;;;;;4978437;28;20055;-89
2023/10/11 03:49:14;;;;;;;7.65;5.90;;;13.60;99.60;;;;;;4978183;28;20014;-90
2023/10/11 03:51:43;;;;;;;8.55;5.90;;;13.60;99.70;;;;;;4977532;28;20011;-89
2023/10/11 03:54:13;;;;;;;7.70;7.03;;;13.60;99.70;;;;;;4989181;28;20031;-90
2023/10/11 03:56:45;;;;;;;7.43;6.72;;;13.50;99.90;;;;;;4978992;28;20087;-88
2023/10/11 03:59:12;;;;;;;8.55;5.53;;;13.50;99.80;;;;;;4978225;28;20101;-90
2023/10/11 04:01:38;;;;;;;8.70;6.88;;;13.50;99.90;;;;;;4979364;28;20026;-89
2023/10/11 04:04:05;;;;;;;7.75;6.55;;;13.30;99.90;;;;;;4979222;28;20032;-90
2023/10/11 04:06:33;;;;;;;7.10;6.22;;;13.30;99.90;;;;;;4980308;28;20023;-89
2023/10/11 04:09:22;;;;;;;10.00;6.13;;;13.30;99.90;;;;;;4980714;28;20027;-91
2023/10/11 04:11:54;;;;;;;8.30;5.53;;;13.30;99.90;;;;;;4980006;28;20030;-91
2023/10/11 04:15:24;;;;;;;6.90;6.07;;;13.20;99.90;;;;;;4980165;28;20031;-90
2023/10/11 04:19:49;;;;;;;9.73;5.93;;;13.20;99.90;;;;;;4981598;28;20015;-91
2023/10/11 04:22:23;;;;;;;7.68;5.38;;;13.20;99.90;;;;;;4981075;28;20027;-92
2023/10/11 04:24:53;;;;;;;6.20;5.32;;;13.10;99.90;;;;;;4980123;28;20046;-91
2023/10/11 04:29:45;;;;;;;9.75;6.93;;;13.20;99.90;;;;;;4980681;28;20038;-90
2023/10/11 04:32:14;;;;;;;6.97;5.55;;;13.10;99.90;;;;;;4980893;28;20023;-91
2023/10/11 04:34:48;;;;;;;6.82;6.00;;;13.10;99.90;;;;;;4981007;28;20053;-90
2023/10/11 04:37:27;;;;;;;6.82;5.70;;;13.10;99.90;;;;;;4979870;28;20022;-91
2023/10/11 04:39:56;;;;;;;8.50;5.78;;;13.20;99.90;;;;;;4978942;28;20029;-91
2023/10/11 04:42:28;;;;;;;6.63;5.80;;;13.20;99.90;;;;;;4969985;28;20034;-88
2023/10/11 04:44:57;;;;;;;8.07;7.15;;;13.20;99.90;;;;;;4970523;28;20512;-90
2023/10/11 04:47:23;;;;;;;8.55;6.43;;;13.10;99.90;;;;;;4977780;28;20027;-90
2023/10/11 04:49:52;;;;;;;8.27;6.13;;;13.10;99.90;;;;;;4978635;28;20035;-91
2023/10/11 04:52:25;;;;;;;6.82;5.75;;;13.10;99.90;;;;;;4975191;28;20050;-90
2023/10/11 04:54:54;;;;;;;10.40;5.65;;;13.20;99.90;;;;;;4969424;28;20042;-91
2023/10/11 04:57:24;;;;;;;8.07;5.43;;;13.10;99.90;;;;;;4976408;28;20011;-91
2023/10/11 04:59:59;;;;;;;6.97;5.82;;;13.20;99.90;;;;;;4978716;28;20070;-92
2023/10/11 05:02:32;;;;;;;9.18;5.43;;;13.10;99.90;;;;;;4980721;28;20014;-91
2023/10/11 05:05:05;;;;;;;8.30;6.03;;;13.10;99.90;;;;;;4982113;28;20047;-91
2023/10/11 05:07:32;;;;;;;7.28;6.50;;;13.00;99.90;;;;;;4974143;28;20042;-91
2023/10/11 05:12:44;;;;;;;10.25;6.82;;;13.00;99.90;;;;;;4973595;28;20094;-91
2023/10/11 05:15:10;;;;;;;;;;;13.00;99.90;;;;;;4978781;28;20375;-90
2023/10/11 05:17:39;;;;;;;8.02;5.78;;;13.00;99.90;;;;;;4967347;28;19914;-91
2023/10/11 05:27:57;;;;;;;7.00;5.68;;;12.90;99.90;;;;;;4971082;28;20090;-91
2023/10/11 05:52:15;;;;;;;8.73;6.63;;;12.80;99.90;;;;;;4962910;28;20085;-92
2023/10/11 05:54:41;;;;;;;9.30;7.05;;;12.80;99.90;;;;;;4961056;28;20023;-91
2023/10/11 05:57:07;;;;;;;8.82;5.47;;;12.80;99.90;;;;;;4958411;28;20065;-91
2023/10/11 05:59:37;;;;;;;10.73;7.30;;;12.70;99.90;;;;;;4956858;28;20054;-90
2023/10/11 06:02:25;;;;;;;10.95;6.25;;;12.70;99.90;;;;;;4949671;28;20038;-92
2023/10/11 06:04:50;;;;;;;10.25;6.10;;;12.70;99.90;;;;;;4960162;28;20544;-89
2023/10/11 06:07:20;;;;;;;11.50;7.03;;;12.70;99.90;;;;;;4963831;28;20073;-92
2023/10/11 06:09:52;;;;;;;8.25;6.53;;;12.60;99.90;;;;;;4947933;28;20022;-92
2023/10/11 06:12:26;;;;;;;9.77;5.03;;;12.60;99.90;;;;;;4962839;28;20381;-91
2023/10/11 06:14:52;;;;;;;10.63;7.10;;;12.60;99.90;;;;;;4959555;28;20077;-90
2023/10/11 06:17:32;;;;;;;7.97;6.50;;;12.60;99.90;;;;;;4957534;28;20034;-91
2023/10/11 06:20:17;;;;;;;8.80;5.75;;;12.60;99.90;;;;;;4956511;28;20423;-91
2023/10/11 06:22:44;;;;;;;9.52;6.93;;;12.60;99.90;;;;;;4962890;28;20027;-90
2023/10/11 06:25:13;;;;;;;8.65;6.32;;;12.60;99.90;;;;;;4960400;28;20045;-89
2023/10/11 06:30:22;;;;;;;9.43;6.63;;;12.60;99.90;;;;;;4976139;28;20015;-90
2023/10/11 06:32:50;;;;;;;8.23;4.97;;;12.60;99.90;;;;;;4977012;28;20445;-93
2023/10/11 06:35:23;;;;;;;10.75;6.38;;;12.60;99.90;;;;;;4975119;28;20102;-90
2023/10/11 06:37:52;;;;;;;18.73;7.90;;;12.60;99.90;;;;;;4973974;28;20015;-90
2023/10/11 06:40:19;;;;;;;8.82;6.65;;;12.60;99.90;;;;;;4977403;28;20057;-91
2023/10/11 06:42:45;;;;;;;11.13;8.05;;;12.60;99.90;;;;;;4968247;28;20022;-90
2023/10/11 06:45:16;;;;;;;11.88;7.38;;;12.60;99.90;;;;;;4968326;28;20024;-90
2023/10/11 06:47:42;;;;;;;10.43;6.07;;;12.70;99.90;;;;;;4966573;28;20019;-91
2023/10/11 06:50:12;;;;;;;8.73;7.43;;;12.70;99.90;;;;;;4977565;28;20023;-90
2023/10/11 06:52:46;;;;;;;11.18;8.05;;;12.80;99.90;;;;;;4965442;28;20027;-91
2023/10/11 06:55:22;;;;;;;;;;;12.90;99.90;;;;;;4978798;28;20019;-91
2023/10/11 06:57:54;;;;;;;12.60;8.15;;;12.90;99.90;;;;;;4978865;28;19931;-90
2023/10/11 07:00:23;;;;;;;11.30;7.70;;;13.00;99.90;;;;;;4976391;28;20039;-92
2023/10/11 07:02:52;;;;;;;10.45;7.97;;;13.00;99.90;;;;;;4977349;28;20022;-90
2023/10/11 07:05:20;;;;;;;9.40;6.88;;;13.10;99.90;;;;;;4978636;28;20123;-91
2023/10/11 07:07:50;;;;;;;9.50;7.15;;;13.10;99.90;;;;;;4979775;28;20513;-90
2023/10/11 07:10:29;;;;;;;11.90;7.05;;;13.30;99.90;;;;;;4980624;28;20037;-91
2023/10/11 07:13:04;;;;;;;9.07;6.57;;;13.30;99.90;;;;;;4979739;28;20023;-91
2023/10/11 07:15:51;;;;;;;12.63;7.57;;;13.30;99.60;;;;;;4981065;28;20030;-92
2023/10/11 07:18:27;;;;;;;9.40;7.05;;;13.40;99.90;;;;;;4981703;28;20054;-92
2023/10/11 07:21:10;;;;;;;10.85;7.57;;;13.40;99.50;;;;;;4981041;28;20022;-90
2023/10/11 07:26:23;;;;;;;11.95;8.85;;;13.50;99.30;;;;;;4981325;28;20030;-90
2023/10/11 07:28:51;;;;;;;15.20;8.15;;;13.60;99.40;;;;;;4980618;28;20113;-91
2023/10/11 07:31:17;;;;;;;12.15;6.97;;;13.80;99.60;;;;;;4972323;28;20087;-90
2023/10/11 07:33:49;;;;;;;13.02;7.70;;;13.80;99.20;;;;;;4974456;28;20481;-90
2023/10/11 07:36:18;;;;;;;10.05;7.25;;;13.90;98.90;;;;;;4989183;28;20027;-91
2023/10/11 07:38:54;;;;;;;9.55;6.60;;;13.90;98.60;;;;;;4979067;28;20027;-90
2023/10/11 07:41:22;;;;;;;15.40;8.98;;;14.10;98.00;;;;;;4963887;28;20034;-90
2023/10/11 07:43:47;;;;;;;;;;;14.20;96.90;;;;;;4979747;28;20041;-91
2023/10/11 07:46:13;;;;;;;12.27;7.53;;;14.30;97.10;;;;;;4979836;28;19969;-91
2023/10/11 07:48:40;;;;;;;11.77;7.20;;;14.30;96.70;;;;;;4980107;28;20034;-91
2023/10/11 07:51:12;;;;;;;11.00;5.72;;;14.50;96.50;;;;;;4979571;28;20126;-89
2023/10/11 07:53:43;;;;;;;9.32;7.18;;;14.50;96.00;;;;;;4982196;28;20106;-91
2023/10/11 07:56:09;;;;;;;11.75;6.10;;;14.60;94.30;;;;;;4977505;28;20139;-90
2023/10/11 07:58:44;;;;;;;13.40;7.47;;;14.70;95.10;;;;;;4962156;28;20038;-91
2023/10/11 08:01:25;;;;;;;10.20;6.45;;;14.80;93.80;;;;;;4980987;28;20053;-91
2023/10/11 08:03:51;;;;;;;11.27;7.20;;;14.90;93.20;;;;;;4983783;28;20027;-89
2023/10/11 08:06:23;;;;;;;10.02;7.50;;;15.10;92.70;;;;;;4983004;28;20026;-90
2023/10/11 08:09:01;;;;;;;11.93;6.60;;;15.20;91.80;;;;;;4984936;28;20026;-91
2023/10/11 08:11:36;;;;;;;11.15;5.35;;;15.30;90.10;;;;;;4972468;28;20125;-91
2023/10/11 08:14:03;;;;;;;9.32;5.85;;;15.50;90.50;;;;;;4979847;28;20019;-90
2023/10/11 08:16:33;;;;;;;10.15;5.68;;;15.50;89.50;;;;;;4978917;28;20031;-88
2023/10/11 08:18:59;;;;;;;10.07;6.53;;;15.60;89.60;;;;;;4978521;28;20032;-91
2023/10/11 08:21:24;;;;;;;9.07;5.85;;;15.70;89.20;;;;;;4979533;28;20139;-91
2023/10/11 08:23:50;;;;;;;9.80;6.85;;;15.70;87.80;;;;;;4962284;28;20033;-90
2023/10/11 08:26:17;;;;;;;13.57;6.55;;;15.80;88.00;;;;;;4978814;28;20106;-91
2023/10/11 08:32:12;;;;;;;8.65;5.85;;;16.00;87.30;;;;;;4976929;28;20030;-90
2023/10/11 08:34:38;;;;;;;7.63;4.45;;;16.10;86.30;;;;;;4972702;28;20018;-90
2023/10/11 08:37:07;;;;;;;8.90;5.88;;;16.20;86.50;;;;;;4980055;28;20031;-92
2023/10/11 08:39:36;;;;;;;10.57;5.00;;;16.30;86.90;;;;;;4980240;28;20047;-92
2023/10/11 08:42:11;;;;;;;7.10;6.15;;;16.40;86.50;;;;;;4979558;28;20627;-91
2023/10/11 08:44:37;;;;;;;8.73;6.35;;;16.60;86.50;;;;;;4971644;28;20023;-90
2023/10/11 08:47:04;;;;;;;8.05;5.25;;;16.70;84.80;;;;;;4979048;28;20023;-90
2023/10/11 08:49:30;;;;;;;10.10;6.63;;;16.80;84.30;;;;;;4979746;28;20062;-91
2023/10/11 08:52:02;;;;;;;7.95;6.22;;;16.90;82.70;;;;;;4987373;28;20015;-93
2023/10/11 08:54:32;;;;;;;8.02;5.97;;;17.10;83.20;;;;;;4985883;28;20153;-91
2023/10/11 08:56:58;;;;;;;9.02;6.25;;;17.20;82.50;;;;;;4978815;28;20027;-92
2023/10/11 08:59:27;;;;;;;11.82;5.97;;;17.30;81.70;;;;;;4977413;28;20018;-92
2023/10/11 09:02:04;;;;;;;9.43;5.38;;;17.50;81.00;;;;;;4958292;28;20027;-90
2023/10/11 09:04:35;;;;;;;7.60;5.07;;;17.60;79.90;;;;;;4977455;28;20083;-90
2023/10/11 09:07:03;;;;;;;7.53;5.30;;;17.70;80.30;;;;;;4983713;28;20043;-94
2023/10/11 09:09:44;;;;;;;7.28;5.07;;;17.90;80.40;;;;;;4989570;28;20019;-93
2023/10/11 09:12:23;;;;;;;7.10;5.75;;;18.10;76.80;;;;;;4997761;28;20033;-91
2023/10/11 09:15:03;;;;;;;8.82;5.80;;;18.40;77.50;;;;;;4997527;28;20007;-90
2023/10/11 09:17:39;;;;;;;11.40;5.43;;;18.60;73.40;;;;;;4995832;28;20015;-91
2023/10/11 09:20:23;;;;;;;8.57;4.75;;;18.80;72.20;;;;;;4979364;28;20031;-92
2023/10/11 09:22:55;;;;;;;6.43;4.60;;;18.90;71.90;;;;;;4968246;28;20010;-93
2023/10/11 09:25:22;;;;;;;7.20;4.95;;;19.10;70.40;;;;;;4989796;28;20027;-90
2023/10/11 09:27:53;;;;;;;9.40;4.93;;;19.20;71.10;;;;;;4978430;28;20050;-94
2023/10/11 09:30:21;;;;;;;6.72;4.55;;;19.50;70.20;;;;;;4977355;28;20023;-91
2023/10/11 09:32:51;;;;;;;6.07;4.45;;;19.60;68.70;;;;;;4977562;28;20042;-92
2023/10/11 09:35:26;;;;;;;10.85;6.53;;;19.80;67.20;;;;;;4977752;28;20047;-91
2023/10/11 09:37:53;;;;;;;6.43;5.13;;;20.00;67.10;;;;;;4977332;28;20022;-91
2023/10/11 09:40:26;;;;;;;9.23;5.90;;;20.20;67.20;;;;;;4978934;28;20023;-91
2023/10/11 09:42:55;;;;;;;8.50;5.30;;;20.30;66.10;;;;;;4970368;28;20055;-90
2023/10/11 09:45:22;;;;;;;7.47;4.55;;;20.60;66.10;;;;;;4980119;28;20268;-90
2023/10/11 09:47:54;;;;;;;10.43;4.78;;;20.70;65.50;;;;;;4979625;28;20027;-89
2023/10/11 09:50:24;;;;;;;9.23;5.43;;;20.80;65.70;;;;;;4980535;28;20093;-90
2023/10/11 09:52:53;;;;;;;10.10;5.30;;;20.80;63.10;;;;;;4981403;28;20053;-90
2023/10/11 09:55:36;;;;;;;7.50;4.85;;;21.00;62.00;;;;;;4971537;28;20011;-93
2023/10/11 09:58:18;;;;;;;8.20;4.35;;;21.10;64.00;;;;;;4961906;28;20097;-91
2023/10/11 10:00:55;;;;;;;7.53;4.78;;;21.20;63.40;;;;;;4954040;28;20511;-90
2023/10/11 10:03:24;;;;;;;5.30;4.07;;;21.50;62.80;;;;;;4979648;28;20039;-90
2023/10/11 10:06:05;;;;;;;6.03;4.30;;;21.80;62.70;;;;;;4978890;28;20061;-91
2023/10/11 10:08:31;;;;;;;5.65;3.78;;;22.00;61.50;;;;;;4979262;28;20038;-90
2023/10/11 10:10:57;;;;;;;8.38;4.25;;;22.30;60.90;;;;;;4978469;28;20018;-92
2023/10/11 10:13:26;;;;;;;8.80;3.70;;;22.50;60.00;;;;;;4978307;28;20031;-92
2023/10/11 10:15:53;;;;;;;6.82;4.63;;;22.40;60.10;;;;;;4978058;28;20034;-91
2023/10/11 10:18:23;;;;;;;5.75;3.70;;;22.70;57.60;;;;;;4977355;28;20054;-90
2023/10/11 10:21:04;;;;;;;7.70;4.03;;;22.90;57.10;;;;;;4978187;28;20053;-89
2023/10/11 10:23:32;;;;;;;9.73;4.32;;;23.00;57.70;;;;;;4978432;28;20094;-91
2023/10/11 10:26:11;;;;;;;7.00;4.05;;;23.30;53.80;;;;;;4972388;28;20023;-92
2023/10/11 10:28:36;;;;;;;8.00;5.30;;;23.30;54.80;;;;;;4977268;28;20015;-91
2023/10/11 10:31:09;;;;;;;6.88;3.80;;;23.60;55.30;;;;;;4975567;28;20025;-91
2023/10/11 10:33:36;;;;;;;7.13;4.57;;;23.70;52.30;;;;;;4950991;28;20082;-91
2023/10/11 10:36:31;;;;;;;10.50;4.60;;;23.80;51.00;;;;;;4977293;28;20054;-91
2023/10/11 10:39:47;;;;;;;6.07;3.17;;;23.90;52.60;;;;;;4976110;28;20023;-91
2023/10/11 10:42:12;;;;;;;8.32;3.72;;;24.00;50.80;;;;;;4969413;28;20027;-89
2023/10/11 10:44:51;;;;;;;5.13;3.35;;;24.10;50.30;;;;;;4973234;28;20042;-90
2023/10/11 10:47:31;;;;;;;6.30;3.85;;;24.20;50.00;;;;;;4962684;28;20027;-89
2023/10/11 10:50:04;;;;;;;9.57;3.38;;;24.40;50.80;;;;;;4980516;28;20390;-91
2023/10/11 10:52:30;;;;;;;7.28;3.33;;;24.70;49.40;;;;;;4977053;28;20320;-90
2023/10/11 10:55:04;;;;;;;7.80;4.53;;;24.70;48.80;;;;;;4979980;28;20054;-89
2023/10/11 10:57:36;;;;;;;14.68;4.80;;;24.50;49.30;;;;;;4980191;28;20396;-88
2023/10/11 11:00:05;;;;;;;6.90;4.07;;;24.90;47.00;;;;;;4980928;28;20027;-90
2023/10/11 11:02:35;;;;;;;5.50;4.22;;;24.80;47.70;;;;;;4983193;28;20026;-90
2023/10/11 11:05:01;;;;;;;8.73;3.38;;;25.00;45.30;;;;;;4982600;28;20031;-90
2023/10/11 11:07:27;;;;;;;7.05;3.13;;;25.00;46.30;;;;;;4978495;28;20027;-90
2023/10/11 11:09:57;;;;;;;5.00;3.28;;;25.00;46.10;;;;;;4977191;28;20441;-90
2023/10/11 11:12:29;;;;;;;7.68;2.72;;;25.30;45.70;;;;;;4980716;28;20106;-91
2023/10/11 11:14:58;;;;;;;7.82;2.35;;;25.40;45.40;;;;;;4980546;28;20022;-92
2023/10/11 11:17:45;;;;;;;8.20;3.75;;;25.40;45.20;;;;;;4973471;28;20559;-90
2023/10/11 11:20:13;;;;;;;8.30;3.50;;;25.50;44.10;;;;;;4978855;28;20033;-91
2023/10/11 11:22:40;;;;;;;4.60;2.90;;;25.60;44.20;;;;;;4977380;28;20011;-90
2023/10/11 11:25:26;;;;;;;9.52;4.43;;;25.70;43.90;;;;;;4977959;28;20019;-91
2023/10/11 11:28:01;;;;;;;;;;;25.80;43.80;;;;;;4956699;28;20114;-90
2023/10/11 11:30:33;;;;;;;8.32;3.95;;;25.80;43.50;;;;;;4977239;28;19934;-90
2023/10/11 11:33:00;;;;;;;7.68;3.63;;;26.00;44.40;;;;;;4977193;28;20011;-90
2023/10/11 11:35:29;;;;;;;7.32;3.50;;;26.00;44.90;;;;;;4954010;28;20031;-91
2023/10/11 11:38:07;;;;;;;7.82;3.55;;;26.50;44.20;;;;;;4978288;28;20038;-91
2023/10/11 11:40:46;;;;;;;6.15;3.38;;;26.50;40.90;;;;;;4979744;28;20046;-93
2023/10/11 11:43:12;;;;;;;;;;;26.10;43.10;;;;;;4981193;28;20022;-90
2023/10/11 11:45:38;;;;;;;7.80;3.85;;;26.20;43.80;;;;;;4962172;28;20411;-90
2023/10/11 11:48:05;;;;;;;6.32;3.10;;;26.70;42.80;;;;;;4979590;28;20026;-91
2023/10/11 11:50:33;;;;;;;;;;;27.00;40.90;;;;;;4979819;28;20242;-89
2023/10/11 11:53:05;;;;;;;7.10;4.22;;;26.70;41.40;;;;;;4961948;28;19906;-91
2023/10/11 11:55:34;;;;;;;7.68;2.63;;;27.00;42.60;;;;;;4962257;28;20015;-89
2023/10/11 11:58:00;;;;;;;7.20;3.08;;;27.20;42.20;;;;;;4978830;28;20018;-90
2023/10/11 12:02:58;;;;;;;6.07;3.28;;;27.10;41.60;;;;;;4978716;28;20412;-92
2023/10/11 12:05:25;;;;;;;10.05;3.63;;;26.70;41.10;;;;;;4970689;28;20037;-91
2023/10/11 12:07:52;;;;;;;7.85;3.97;;;26.90;40.30;;;;;;4979346;28;20034;-91
2023/10/11 12:10:23;;;;;;;7.88;3.05;;;27.40;40.50;;;;;;4979759;28;20144;-91
2023/10/11 12:12:53;;;;;;;7.32;3.60;;;27.40;41.00;;;;;;4979725;28;20034;-88
2023/10/11 12:15:19;;;;;;;8.60;3.45;;;27.50;40.00;;;;;;4968187;28;20031;-91
2023/10/11 12:17:54;;;;;;;10.82;3.50;;;27.60;40.20;;;;;;4971746;28;20019;-89
2023/10/11 12:20:22;;;;;;;11.50;3.78;;;27.40;40.00;;;;;;4979140;28;20030;-92
2023/10/11 12:22:50;;;;;;;8.45;2.90;;;27.30;40.00;;;;;;4978708;28;20342;-90
2023/10/11 12:25:24;;;;;;;8.95;3.95;;;27.70;39.20;;;;;;4977962;28;20627;-89
2023/10/11 12:27:51;;;;;;;9.40;4.07;;;27.90;38.90;;;;;;4978241;28;20458;-91
2023/10/11 12:30:22;;;;;;;7.90;3.90;;;28.20;39.10;;;;;;4985099;28;20026;-92
2023/10/11 12:32:52;;;;;;;9.00;3.60;;;28.80;36.90;;;;;;4982637;28;20085;-92
2023/10/11 12:35:23;;;;;;;5.15;2.97;;;28.60;37.30;;;;;;4978245;28;20011;-91
2023/10/11 12:37:49;;;;;;;7.78;3.15;;;28.30;37.80;;;;;;4978443;28;20030;-92
2023/10/11 12:40:22;;;;;;;6.88;2.75;;;28.10;38.50;;;;;;4977957;28;20082;-90
2023/10/11 12:42:48;;;;;;;8.65;3.30;;;28.00;38.10;;;;;;4978033;28;20037;-93
2023/10/11 12:45:18;;;;;;;6.65;3.65;;;28.30;37.50;;;;;;4979151;28;20022;-89
2023/10/11 12:47:44;;;;;;;5.72;2.92;;;28.40;38.10;;;;;;4979471;28;20019;-91
2023/10/11 12:50:10;;;;;;;7.35;3.65;;;28.70;37.30;;;;;;4979760;28;20045;-93
2023/10/11 12:52:38;;;;;;;5.32;2.15;;;29.40;37.40;;;;;;4979147;28;20410;-92
2023/10/11 12:55:07;;;;;;;4.63;2.00;;;29.20;35.30;;;;;;4980088;28;20507;-91
2023/10/11 12:57:38;;;;;;;6.80;2.75;;;29.40;35.10;;;;;;4953984;28;20035;-91
2023/10/11 13:00:28;;;;;;;5.97;3.30;;;29.10;35.60;;;;;;4980224;28;20019;-92
2023/10/11 13:02:54;;;;;;;7.57;3.75;;;28.90;35.00;;;;;;4978428;28;20057;-90
2023/10/11 13:05:20;;;;;;;5.07;2.67;;;29.20;35.70;;;;;;4962018;28;20118;-91
2023/10/11 13:07:45;;;;;;;16.88;4.22;;;29.40;36.20;;;;;;4978505;28;20066;-91
2023/10/11 13:10:12;;;;;;;9.63;3.75;;;30.10;35.10;;;;;;4970784;28;20481;-88
2023/10/11 13:12:37;;;;;;;6.60;3.75;;;30.20;34.50;;;;;;4964764;28;20057;-92
2023/10/11 13:15:09;;;;;;;8.35;3.90;;;29.60;33.60;;;;;;4990772;28;20014;-91
2023/10/11 13:17:40;;;;;;;8.60;3.78;;;30.20;33.90;;;;;;4970010;28;20054;-89
2023/10/11 13:20:17;;;;;;;7.80;2.40;;;30.60;32.60;;;;;;4977280;28;20406;-91
2023/10/11 13:22:44;;;;;;;7.55;3.70;;;30.80;32.80;;;;;;4963834;28;20027;-91
2023/10/11 13:25:23;;;;;;;7.85;3.20;;;30.70;32.20;;;;;;4978424;28;20106;-92
2023/10/11 13:27:54;;;;;;;7.03;3.13;;;30.60;32.90;;;;;;4980842;28;20035;-90
2023/10/11 13:30:25;;;;;;;6.32;3.45;;;30.80;32.90;;;;;;4980787;28;20054;-91
2023/10/11 13:32:51;;;;;;;4.88;2.45;;;30.00;33.30;;;;;;4981759;28;20015;-92
2023/10/11 13:35:17;;;;;;;8.38;3.92;;;30.50;33.50;;;;;;4981016;28;20042;-93
2023/10/11 13:37:46;;;;;;;6.30;3.58;;;30.70;32.50;;;;;;4967987;28;20038;-92
2023/10/11 13:40:16;;;;;;;7.47;3.17;;;31.20;32.00;;;;;;4978890;28;20027;-91
2023/10/11 13:42:43;;;;;;;6.63;3.88;;;30.60;32.10;;;;;;4982091;28;20039;-92
2023/10/11 13:45:16;;;;;;;8.02;3.70;;;30.60;32.30;;;;;;4981069;28;20110;-91
2023/10/11 13:47:42;;;;;;;9.50;3.40;;;30.20;33.60;;;;;;4956245;28;20113;-92
2023/10/11 13:50:20;;;;;;;5.93;3.22;;;30.60;31.40;;;;;;4973615;28;20027;-93
2023/10/11 13:52:51;;;;;;;6.38;2.95;;;30.70;31.80;;;;;;4965484;28;20030;-92
2023/10/11 13:55:23;;;;;;;5.75;3.45;;;30.90;31.30;;;;;;4981749;28;20103;-90